createdAt,value
2022-11-16T00:01:49.775Z,11.67
2022-11-16T00:04:17.346Z,13.23
2022-11-16T00:06:46.423Z,10.33
2022-11-16T00:09:22.821Z,10.50
2022-11-16T00:11:52.381Z,9.77
2022-11-16T00:14:21.122Z,8.53
2022-11-16T00:16:48.464Z,10.23
2022-11-16T00:19:15.792Z,10.53
2022-11-16T00:21:43.065Z,9.97
2022-11-16T00:24:15.520Z,9.27
2022-11-16T00:26:43.473Z,9.27
2022-11-16T00:29:20.241Z,9.47
2022-11-16T00:31:48.873Z,10.47
2022-11-16T00:34:16.185Z,11.83
2022-11-16T00:36:44.130Z,8.50
2022-11-16T00:39:12.925Z,9.17
2022-11-16T00:41:41.219Z,9.63
2022-11-16T00:44:10.066Z,9.10
2022-11-16T00:46:37.810Z,10.63
2022-11-16T00:49:05.588Z,8.17
2022-11-16T00:51:33.954Z,9.60
2022-11-16T00:54:01.862Z,9.70
2022-11-16T00:56:30.537Z,8.80
2022-11-16T00:58:57.869Z,9.37
2022-11-16T01:01:25.281Z,7.90
2022-11-16T01:03:52.626Z,9.30
2022-11-16T01:06:20.360Z,8.93
2022-11-16T01:08:49.036Z,9.00
2022-11-16T01:11:36.624Z,8.63
2022-11-16T01:14:06.912Z,8.73
2022-11-16T01:16:34.416Z,8.50
2022-11-16T01:19:02.131Z,10.07
2022-11-16T01:21:29.587Z,9.17
2022-11-16T01:23:57.287Z,8.73
2022-11-16T01:26:24.825Z,7.47
2022-11-16T01:28:52.954Z,11.17
2022-11-16T01:31:20.866Z,8.97
2022-11-16T01:33:50.800Z,8.40
2022-11-16T01:36:22.740Z,10.13
2022-11-16T01:38:50.693Z,11.13
2022-11-16T01:41:23.274Z,10.27
2022-11-16T01:44:03.580Z,10.37
2022-11-16T01:46:37.196Z,10.33
2022-11-16T01:49:10.593Z,8.90
2022-11-16T01:51:39.952Z,9.97
2022-11-16T01:54:10.885Z,10.50
2022-11-16T01:56:44.093Z,9.30
2022-11-16T01:59:17.452Z,9.90
2022-11-16T02:01:45.157Z,9.87
2022-11-16T02:04:13.887Z,10.83
2022-11-16T02:07:15.696Z,8.40
2022-11-16T02:10:25.321Z,9.10
2022-11-16T02:13:34.539Z,10.80
2022-11-16T02:16:25.260Z,8.83
2022-11-16T02:19:24.358Z,9.13
2022-11-16T02:22:07.360Z,11.43
2022-11-16T02:24:44.201Z,11.63
2022-11-16T02:27:21.553Z,9.03
2022-11-16T02:29:53.443Z,10.70
2022-11-16T02:32:43.952Z,10.63
2022-11-16T02:35:21.216Z,11.43
2022-11-16T02:38:07.943Z,8.90
2022-11-16T02:40:40.096Z,10.17
2022-11-16T02:43:14.083Z,9.57
2022-11-16T02:45:45.872Z,10.87
2022-11-16T02:48:20.679Z,10.47
2022-11-16T02:50:52.839Z,9.17
2022-11-16T02:53:25.135Z,8.53
2022-11-16T02:56:12.617Z,10.40
2022-11-16T02:58:40.593Z,11.83
2022-11-16T03:01:41.199Z,10.43
2022-11-16T03:04:16.638Z,11.00
2022-11-16T03:06:48.480Z,10.33
2022-11-16T03:09:31.579Z,9.97
2022-11-16T03:12:03.061Z,10.63
2022-11-16T03:14:54.705Z,10.37
2022-11-16T03:17:27.422Z,10.90
2022-11-16T03:20:01.787Z,9.10
2022-11-16T03:22:44.070Z,8.87
2022-11-16T03:25:14.643Z,10.00
2022-11-16T03:28:02.270Z,9.33
2022-11-16T03:30:33.040Z,8.90
2022-11-16T03:33:30.547Z,10.77
2022-11-16T03:36:03.732Z,8.50
2022-11-16T03:38:35.474Z,8.83
2022-11-16T03:41:07.570Z,9.53
2022-11-16T03:43:36.329Z,8.27
2022-11-16T03:46:05.694Z,10.40
2022-11-16T03:48:40.398Z,9.03
2022-11-16T03:51:14.199Z,10.47
2022-11-16T03:53:42.961Z,8.80
2022-11-16T03:56:12.040Z,8.20
2022-11-16T03:58:40.057Z,8.63
2022-11-16T04:01:09.112Z,8.87
2022-11-16T04:03:36.575Z,7.80
2022-11-16T04:06:23.031Z,7.80
2022-11-16T04:09:08.860Z,8.63
2022-11-16T04:11:57.316Z,9.73
2022-11-16T04:14:45.255Z,8.37
2022-11-16T04:17:36.357Z,6.83
2022-11-16T04:20:24.106Z,7.63
2022-11-16T04:23:24.460Z,7.93
2022-11-16T04:25:53.080Z,8.17
2022-11-16T04:28:24.051Z,7.57
2022-11-16T04:31:16.045Z,8.33
2022-11-16T04:34:10.514Z,6.60
2022-11-16T04:37:00.280Z,7.53
2022-11-16T04:39:29.051Z,8.53
2022-11-16T04:42:14.655Z,6.53
2022-11-16T04:45:02.369Z,8.13
2022-11-16T04:47:36.304Z,7.37
2022-11-16T04:50:04.139Z,8.23
2022-11-16T04:52:32.326Z,7.90
2022-11-16T04:55:00.039Z,5.63
2022-11-16T04:57:28.761Z,6.90
2022-11-16T04:59:56.983Z,7.47
2022-11-16T05:02:25.153Z,7.33
2022-11-16T05:04:56.977Z,6.40
2022-11-16T05:07:25.771Z,7.23
2022-11-16T05:10:00.572Z,8.13
2022-11-16T05:12:28.741Z,6.33
2022-11-16T05:14:59.504Z,7.17
2022-11-16T05:17:30.437Z,7.00
2022-11-16T05:20:18.699Z,6.97
2022-11-16T05:22:57.910Z,5.77
2022-11-16T05:25:35.226Z,6.70
2022-11-16T05:28:06.232Z,6.80
2022-11-16T05:30:37.614Z,6.17
2022-11-16T05:33:05.335Z,6.03
2022-11-16T05:35:37.351Z,5.97
2022-11-16T05:38:04.758Z,6.80
2022-11-16T05:40:35.953Z,6.67
2022-11-16T05:43:03.438Z,8.60
2022-11-16T05:45:35.820Z,6.73
2022-11-16T05:48:03.704Z,7.13
2022-11-16T05:50:31.874Z,7.40
2022-11-16T05:53:12.452Z,7.67
2022-11-16T05:55:39.992Z,7.40
2022-11-16T05:58:08.112Z,8.43
2022-11-16T06:00:35.711Z,7.73
2022-11-16T06:03:03.804Z,7.50
2022-11-16T06:05:40.521Z,8.17
2022-11-16T06:08:10.158Z,8.00
2022-11-16T06:10:37.542Z,8.53
2022-11-16T06:13:06.161Z,7.40
2022-11-16T06:15:38.341Z,8.53
2022-11-16T06:18:07.477Z,9.30
2022-11-16T06:20:37.685Z,7.27
2022-11-16T06:23:05.187Z,7.93
2022-11-16T06:25:32.710Z,7.60
2022-11-16T06:28:19.066Z,7.50
2022-11-16T06:30:47.466Z,8.63
2022-11-16T06:33:15.065Z,7.80
2022-11-16T06:35:43.258Z,8.37
2022-11-16T06:38:18.404Z,8.53
2022-11-16T06:40:52.466Z,8.53
2022-11-16T06:43:21.653Z,7.97
2022-11-16T06:45:51.572Z,7.43
2022-11-16T06:48:19.856Z,7.90
2022-11-16T06:50:49.957Z,8.57
2022-11-16T06:53:24.610Z,8.13
2022-11-16T06:55:55.933Z,7.97
2022-11-16T06:58:23.303Z,8.00
2022-11-16T07:00:50.975Z,8.50
2022-11-16T07:03:18.662Z,6.50
2022-11-16T07:05:47.027Z,8.60
2022-11-16T07:08:17.616Z,8.67
2022-11-16T07:10:45.330Z,15.03
2022-11-16T07:13:13.172Z,7.97
2022-11-16T07:15:40.614Z,7.83
2022-11-16T07:18:09.477Z,8.27
2022-11-16T07:20:39.734Z,9.53
2022-11-16T07:23:11.352Z,7.10
2022-11-16T07:25:42.219Z,6.30
2022-11-16T07:28:09.787Z,8.50
2022-11-16T07:30:37.503Z,9.13
2022-11-16T07:33:12.274Z,7.23
2022-11-16T07:36:09.899Z,6.97
2022-11-16T07:38:38.862Z,9.53
2022-11-16T07:41:12.837Z,9.27
2022-11-16T07:43:52.994Z,7.83
2022-11-16T07:49:16.799Z,8.23
2022-11-16T07:51:55.963Z,7.83
2022-11-16T07:54:46.146Z,7.70
2022-11-16T07:57:14.824Z,9.53
2022-11-16T07:59:42.976Z,7.73
2022-11-16T08:02:11.179Z,6.07
2022-11-16T08:04:40.984Z,8.33
2022-11-16T08:07:09.732Z,8.00
2022-11-16T08:09:43.853Z,7.30
2022-11-16T08:12:14.776Z,7.13
2022-11-16T08:14:42.187Z,7.53
2022-11-16T08:17:09.539Z,6.70
2022-11-16T08:19:40.212Z,7.03
2022-11-16T08:22:09.413Z,8.83
2022-11-16T08:24:37.016Z,8.97
2022-11-16T08:27:04.495Z,7.73
2022-11-16T08:29:35.878Z,7.30
2022-11-16T08:32:05.564Z,8.47
2022-11-16T08:34:35.101Z,7.77
2022-11-16T08:37:04.655Z,7.10
2022-11-16T08:39:39.357Z,10.13
2022-11-16T08:42:06.911Z,9.20
2022-11-16T08:44:35.340Z,9.30
2022-11-16T08:47:06.803Z,7.50
2022-11-16T08:49:39.229Z,12.00
2022-11-16T08:52:07.212Z,7.83
2022-11-16T08:54:35.567Z,8.00
2022-11-16T08:57:03.273Z,8.37
2022-11-16T08:59:33.086Z,7.03
2022-11-16T09:02:06.700Z,7.53
2022-11-16T09:04:37.209Z,9.27
2022-11-16T09:07:05.002Z,9.60
2022-11-16T09:09:32.421Z,8.60
2022-11-16T09:12:00.257Z,9.93
2022-11-16T09:14:29.041Z,7.83
2022-11-16T09:16:56.522Z,10.50
2022-11-16T09:19:23.931Z,7.17
2022-11-16T09:21:51.383Z,8.40
2022-11-16T09:24:18.848Z,8.03
2022-11-16T09:26:46.381Z,8.60
2022-11-16T09:29:15.345Z,7.20
2022-11-16T09:31:43.783Z,9.13
2022-11-16T09:34:11.406Z,7.37
2022-11-16T09:36:38.893Z,7.77
2022-11-16T09:42:15.660Z,8.43
2022-11-16T09:45:08.894Z,7.17
2022-11-16T09:47:57.601Z,6.90
2022-11-16T09:50:41.494Z,6.97
2022-11-16T09:53:44.409Z,7.70
2022-11-16T09:56:22.708Z,7.27
2022-11-16T09:59:00.422Z,7.00
2022-11-16T10:01:30.290Z,6.63
2022-11-16T10:04:24.404Z,8.03
2022-11-16T10:07:04.297Z,6.57
2022-11-16T10:09:32.208Z,6.87
2022-11-16T10:12:18.232Z,6.97
2022-11-16T10:15:11.907Z,5.63
2022-11-16T10:18:17.099Z,5.80
2022-11-16T10:20:57.252Z,5.33
2022-11-16T10:24:18.590Z,6.43
2022-11-16T10:27:03.157Z,5.37
2022-11-16T10:29:50.850Z,5.70
2022-11-16T10:32:28.171Z,6.43
2022-11-16T10:35:09.100Z,5.17
2022-11-16T10:37:41.068Z,5.03
2022-11-16T10:40:24.665Z,5.60
2022-11-16T10:43:14.764Z,5.47
2022-11-16T10:46:12.736Z,5.37
2022-11-16T10:48:49.060Z,5.33
2022-11-16T10:51:18.743Z,5.87
2022-11-16T10:53:46.638Z,5.20
2022-11-16T10:56:21.929Z,4.90
2022-11-16T10:59:10.627Z,4.43
2022-11-16T11:01:53.269Z,6.13
2022-11-16T11:04:43.967Z,4.63
2022-11-16T11:07:31.726Z,3.73
2022-11-16T11:09:59.791Z,4.03
2022-11-16T11:12:39.755Z,3.83
2022-11-16T11:15:26.099Z,3.70
2022-11-16T11:18:19.323Z,3.83
2022-11-16T11:21:04.113Z,3.70
2022-11-16T11:23:38.132Z,3.70
2022-11-16T11:26:06.217Z,3.70
2022-11-16T11:28:39.481Z,4.80
2022-11-16T11:31:16.870Z,3.60
2022-11-16T11:33:51.155Z,3.90
2022-11-16T11:36:23.093Z,3.33
2022-11-16T11:39:25.318Z,3.77
2022-11-16T11:42:12.368Z,3.10
2022-11-16T11:44:49.727Z,3.10
2022-11-16T11:48:02.450Z,4.13
2022-11-16T11:50:55.511Z,3.90
2022-11-16T11:53:35.243Z,6.17
2022-11-16T11:56:03.124Z,4.10
2022-11-16T11:58:34.001Z,4.27
2022-11-16T12:01:26.049Z,4.07
2022-11-16T12:04:06.145Z,4.00
2022-11-16T12:06:46.507Z,4.77
2022-11-16T12:09:42.876Z,4.37
2022-11-16T12:12:38.955Z,4.17
2022-11-16T12:15:12.015Z,4.40
2022-11-16T12:18:02.564Z,4.00
2022-11-16T12:20:51.946Z,5.03
2022-11-16T12:23:56.170Z,4.37
2022-11-16T12:26:35.834Z,4.63
2022-11-16T12:29:24.883Z,4.00
2022-11-16T12:32:01.755Z,3.87
2022-11-16T12:34:41.165Z,6.37
2022-11-16T12:37:23.718Z,5.40
2022-11-16T12:40:06.606Z,5.80
2022-11-16T12:42:42.021Z,4.93
2022-11-16T12:45:27.596Z,4.47
2022-11-16T12:48:20.870Z,4.30
2022-11-16T12:50:57.878Z,4.20
2022-11-16T12:54:00.432Z,4.17
2022-11-16T12:56:52.501Z,3.67
2022-11-16T12:59:40.754Z,3.33
2022-11-16T13:02:12.179Z,3.80
2022-11-16T13:04:51.026Z,3.37
2022-11-16T13:07:41.250Z,3.40
2022-11-16T13:10:27.902Z,4.27
2022-11-16T13:13:29.530Z,4.00
2022-11-16T13:15:48.469Z,4.10
2022-11-16T13:18:19.892Z,4.83
2022-11-16T13:21:01.726Z,4.30
2022-11-16T13:23:32.844Z,3.83
2022-11-16T13:26:15.833Z,3.63
2022-11-16T13:29:14.305Z,3.93
2022-11-16T13:32:17.420Z,4.30
2022-11-16T13:34:45.702Z,3.83
2022-11-16T13:37:38.302Z,5.47
2022-11-16T13:40:05.697Z,5.07
2022-11-16T13:42:45.071Z,5.73
2022-11-16T13:45:22.091Z,6.00
2022-11-16T13:47:58.003Z,6.20
2022-11-16T13:50:38.286Z,6.23
2022-11-16T13:56:25.608Z,6.63
2022-11-16T13:58:57.362Z,6.50
2022-11-16T14:01:26.517Z,7.20
2022-11-16T14:04:33.060Z,8.03
2022-11-16T14:07:01.084Z,7.60
2022-11-16T14:09:46.340Z,8.57
2022-11-16T14:12:38.669Z,9.17
2022-11-16T14:15:34.440Z,8.70
2022-11-16T14:18:09.425Z,10.33
2022-11-16T14:21:09.719Z,8.43
2022-11-16T14:23:49.972Z,9.27
2022-11-16T14:26:36.347Z,10.00
2022-11-16T14:29:09.623Z,7.70
2022-11-16T14:31:53.491Z,8.97
2022-11-16T14:34:40.991Z,7.20
2022-11-16T14:37:40.300Z,8.27
2022-11-16T14:40:18.450Z,7.90
2022-11-16T14:43:16.811Z,8.57
2022-11-16T14:46:08.738Z,8.10
2022-11-16T14:48:45.986Z,9.37
2022-11-16T14:51:15.260Z,9.63
2022-11-16T14:53:50.435Z,8.07
2022-11-16T14:56:18.741Z,10.50
2022-11-16T14:59:00.553Z,8.83
2022-11-16T15:01:38.845Z,9.10
2022-11-16T15:04:11.150Z,8.87
2022-11-16T15:06:46.686Z,10.57
2022-11-16T15:09:33.745Z,11.27
2022-11-16T15:12:23.666Z,13.97
2022-11-16T15:14:54.783Z,14.57
2022-11-16T15:17:30.073Z,15.27
2022-11-16T15:20:04.236Z,14.50
2022-11-16T15:22:39.549Z,13.23
2022-11-16T15:25:23.123Z,13.13
2022-11-16T15:27:51.009Z,13.83
2022-11-16T15:30:41.581Z,13.57
2022-11-16T15:33:15.173Z,13.13
2022-11-16T15:35:42.562Z,11.50
2022-11-16T15:38:25.954Z,12.73
2022-11-16T15:40:56.031Z,12.03
2022-11-16T15:43:44.798Z,12.90
2022-11-16T15:46:17.914Z,12.83
2022-11-16T15:48:45.737Z,13.23
2022-11-16T15:51:17.664Z,12.33
2022-11-16T15:54:11.555Z,11.87
2022-11-16T15:56:39.446Z,14.13
2022-11-16T15:59:20.577Z,13.10
2022-11-16T16:01:49.141Z,14.30
2022-11-16T16:04:18.613Z,68.87
2022-11-16T16:06:55.170Z,45.43
2022-11-16T16:09:34.846Z,19.80
2022-11-16T16:12:23.519Z,14.43
2022-11-16T16:14:52.203Z,12.33
2022-11-16T16:17:28.796Z,12.60
2022-11-16T16:20:02.855Z,12.13
2022-11-16T16:22:33.316Z,12.80
2022-11-16T16:25:01.609Z,36.17
2022-11-16T16:27:31.434Z,15.43
2022-11-16T16:30:03.812Z,13.27
2022-11-16T16:32:34.690Z,18.80
2022-11-16T16:35:05.655Z,13.63
2022-11-16T16:37:35.724Z,15.20
2022-11-16T16:40:03.311Z,15.87
2022-11-16T16:42:30.609Z,13.70
2022-11-16T16:45:00.121Z,14.83
2022-11-16T16:47:27.507Z,15.03
2022-11-16T16:49:54.877Z,15.53
2022-11-16T16:52:22.218Z,15.80
2022-11-16T16:54:49.638Z,14.07
2022-11-16T16:57:19.116Z,15.77
2022-11-16T16:59:48.357Z,14.67
2022-11-16T17:02:17.062Z,14.77
2022-11-16T17:04:46.663Z,14.20
2022-11-16T17:07:15.515Z,15.43
2022-11-16T17:09:43.611Z,14.00
2022-11-16T17:12:11.294Z,13.67
2022-11-16T17:14:38.659Z,14.97
2022-11-16T17:17:06.067Z,16.23
2022-11-16T17:19:33.453Z,14.90
2022-11-16T17:22:00.773Z,14.10
2022-11-16T17:24:28.207Z,13.20
2022-11-16T17:26:55.587Z,15.50
2022-11-16T17:29:23.118Z,14.63
2022-11-16T17:31:50.597Z,13.40
2022-11-16T17:34:18.285Z,13.50
2022-11-16T17:36:45.662Z,14.70
2022-11-16T17:39:13.277Z,15.23
2022-11-16T17:41:40.632Z,15.83
2022-11-16T17:44:08.831Z,16.00
2022-11-16T17:46:36.277Z,18.07
2022-11-16T17:49:03.746Z,14.77
2022-11-16T17:51:31.130Z,13.83
2022-11-16T17:53:58.938Z,16.60
2022-11-16T17:56:27.862Z,13.57
2022-11-16T17:58:58.439Z,15.30
2022-11-16T18:01:27.122Z,15.97
2022-11-16T18:03:54.889Z,16.50
2022-11-16T18:06:25.186Z,16.63
2022-11-16T18:08:53.054Z,18.70
2022-11-16T18:11:26.046Z,17.63
2022-11-16T18:14:05.439Z,18.73
2022-11-16T18:16:33.753Z,19.33
2022-11-16T18:19:03.918Z,15.90
2022-11-16T18:21:33.835Z,16.30
2022-11-16T18:24:01.387Z,16.97
2022-11-16T18:26:28.806Z,17.53
2022-11-16T18:28:57.330Z,16.30
2022-11-16T18:31:25.846Z,16.90
2022-11-16T18:33:53.520Z,14.47
2022-11-16T18:36:22.500Z,13.47
2022-11-16T18:38:49.941Z,12.03
2022-11-16T18:41:24.066Z,12.13
2022-11-16T18:43:54.756Z,13.23
2022-11-16T18:46:30.764Z,11.27
2022-11-16T18:48:59.227Z,9.90
2022-11-16T18:51:28.098Z,10.23
2022-11-16T18:53:56.058Z,10.07
2022-11-16T18:56:24.160Z,10.00
2022-11-16T18:58:52.934Z,7.80
2022-11-16T19:01:23.635Z,8.40
2022-11-16T19:03:52.535Z,7.03
2022-11-16T19:06:21.824Z,8.67
2022-11-16T19:08:56.353Z,7.87
2022-11-16T19:11:25.407Z,7.27
2022-11-16T19:14:00.012Z,6.83
2022-11-16T19:16:27.669Z,8.00
2022-11-16T19:18:55.512Z,7.63
2022-11-16T19:21:23.966Z,6.63
2022-11-16T19:23:55.775Z,6.07
2022-11-16T19:26:26.542Z,5.43
2022-11-16T19:28:54.918Z,4.53
2022-11-16T19:31:30.475Z,5.43
2022-11-16T19:34:00.866Z,5.40
2022-11-16T19:36:30.205Z,5.10
2022-11-16T19:38:58.557Z,4.97
2022-11-16T19:41:26.909Z,6.03
2022-11-16T19:43:59.038Z,5.03
2022-11-16T19:46:28.497Z,5.00
2022-11-16T19:48:56.852Z,5.07
2022-11-16T19:51:26.842Z,4.40
2022-11-16T19:53:54.863Z,4.77
2022-11-16T19:56:23.573Z,4.43
2022-11-16T19:58:51.646Z,5.23
2022-11-16T20:01:29.658Z,4.40
2022-11-16T20:04:03.515Z,4.23
2022-11-16T20:06:36.560Z,4.70
2022-11-16T20:09:09.832Z,4.67
2022-11-16T20:11:39.739Z,4.30
2022-11-16T20:14:10.135Z,5.17
2022-11-16T20:16:40.203Z,4.83
2022-11-16T20:19:09.328Z,5.00
2022-11-16T20:21:42.177Z,3.83
2022-11-16T20:24:17.928Z,5.30
2022-11-16T20:26:47.967Z,4.30
2022-11-16T20:29:18.182Z,4.40
2022-11-16T20:31:46.373Z,4.90
2022-11-16T20:34:16.786Z,3.90
2022-11-16T20:36:47.062Z,4.10
2022-11-16T20:39:16.742Z,5.33
2022-11-16T20:41:44.615Z,3.87
2022-11-16T20:44:16.479Z,4.30
2022-11-16T20:46:45.159Z,4.00
2022-11-16T20:49:12.787Z,4.27
2022-11-16T20:51:40.696Z,3.97
2022-11-16T20:54:08.195Z,3.40
2022-11-16T20:56:35.620Z,4.40
2022-11-16T20:59:03.078Z,5.80
2022-11-16T21:01:33.781Z,4.53
2022-11-16T21:04:04.381Z,3.87
2022-11-16T21:06:32.710Z,3.40
2022-11-16T21:09:00.950Z,3.87
2022-11-16T21:12:06.942Z,3.93
2022-11-16T21:14:34.415Z,4.07
2022-11-16T21:17:01.869Z,4.90
2022-11-16T21:19:30.106Z,4.93
2022-11-16T21:21:57.686Z,5.33
2022-11-16T21:24:27.431Z,4.93
2022-11-16T21:26:54.833Z,4.40
2022-11-16T21:29:26.028Z,5.50
2022-11-16T21:31:53.481Z,4.87
2022-11-16T21:34:20.840Z,5.07
2022-11-16T21:36:48.247Z,5.30
2022-11-16T21:39:15.770Z,4.73
2022-11-16T21:41:43.146Z,4.73
2022-11-16T21:44:10.534Z,5.00
2022-11-16T21:46:37.989Z,4.27
2022-11-16T21:49:05.676Z,3.80
2022-11-16T21:51:33.526Z,4.73
2022-11-16T21:54:00.913Z,3.47
2022-11-16T21:56:28.465Z,3.90
2022-11-16T21:58:55.918Z,4.20
2022-11-16T22:01:24.243Z,5.07
2022-11-16T22:04:10.489Z,5.33
2022-11-16T22:06:56.378Z,6.00
2022-11-16T22:09:23.806Z,3.67
2022-11-16T22:11:51.362Z,4.33
2022-11-16T22:14:18.866Z,4.37
2022-11-16T22:16:46.542Z,4.37
2022-11-16T22:19:13.979Z,4.23
2022-11-16T22:21:41.378Z,4.03
2022-11-16T22:24:08.992Z,3.63
2022-11-16T22:26:38.274Z,4.20
2022-11-16T22:29:05.683Z,4.07
2022-11-16T22:31:33.223Z,4.10
2022-11-16T22:34:00.838Z,4.70
2022-11-16T22:36:28.305Z,3.97
2022-11-16T22:38:57.210Z,4.20
2022-11-16T22:41:24.505Z,5.30
2022-11-16T22:43:51.891Z,4.57
2022-11-16T22:46:19.144Z,3.97
2022-11-16T22:48:47.855Z,4.33
2022-11-16T22:51:29.290Z,4.27
2022-11-16T22:54:01.884Z,4.77
2022-11-16T22:56:30.929Z,4.67
2022-11-16T22:58:58.559Z,4.13
2022-11-16T23:01:26.151Z,4.80
2022-11-16T23:03:53.728Z,4.83
2022-11-16T23:06:21.106Z,3.97
2022-11-16T23:08:48.897Z,3.63
2022-11-16T23:11:40.185Z,4.73
2022-11-16T23:14:48.647Z,4.13
2022-11-16T23:17:15.975Z,3.83
2022-11-16T23:20:01.942Z,4.03
2022-11-16T23:22:48.239Z,4.20
2022-11-16T23:25:34.286Z,3.90
2022-11-16T23:28:04.424Z,4.73
2022-11-16T23:30:32.600Z,4.37
2022-11-16T23:33:00.100Z,3.77
2022-11-16T23:35:27.468Z,3.30
2022-11-16T23:38:13.017Z,4.13
2022-11-16T23:40:40.713Z,3.90
2022-11-16T23:43:29.346Z,4.17
2022-11-16T23:45:56.725Z,6.03
2022-11-16T23:48:24.092Z,4.17
2022-11-16T23:50:51.463Z,3.57
2022-11-16T23:53:18.792Z,4.30
2022-11-16T23:55:47.525Z,4.80
2022-11-16T23:58:15.626Z,5.40
